createdAt,value
2019-02-02T00:00:58.542Z,2.69
2019-02-02T00:03:32.786Z,2.71
2019-02-02T00:06:07.244Z,2.82
2019-02-02T00:08:41.542Z,2.77
2019-02-02T00:11:15.792Z,2.61
2019-02-02T00:13:49.995Z,2.58
2019-02-02T00:16:24.257Z,2.68
2019-02-02T00:18:58.488Z,2.58
2019-02-02T00:21:32.732Z,2.52
2019-02-02T00:24:06.926Z,2.61
2019-02-02T00:26:41.276Z,2.61
2019-02-02T00:29:15.588Z,2.58
2019-02-02T00:31:49.855Z,2.58
2019-02-02T00:34:24.126Z,2.55
2019-02-02T00:36:59.254Z,2.44
2019-02-02T00:39:33.570Z,2.44
2019-02-02T00:42:09.543Z,2.44
2019-02-02T00:44:43.726Z,2.43
2019-02-02T00:47:17.946Z,2.30
2019-02-02T00:49:52.158Z,2.29
2019-02-02T00:52:26.408Z,2.26
2019-02-02T00:55:00.771Z,2.25
2019-02-02T00:57:34.965Z,2.24
2019-02-02T01:00:11.450Z,2.17
2019-02-02T01:02:46.144Z,2.13
2019-02-02T01:05:20.395Z,2.12
2019-02-02T01:07:54.862Z,2.04
2019-02-02T01:10:31.264Z,2.06
2019-02-02T01:13:06.257Z,2.03
2019-02-02T01:15:40.497Z,2.05
2019-02-02T01:18:14.727Z,2.03
2019-02-02T01:20:49.043Z,2.03
2019-02-02T01:23:23.430Z,2.11
2019-02-02T01:25:57.635Z,2.10
2019-02-02T01:28:31.861Z,2.13
2019-02-02T01:31:06.086Z,2.15
2019-02-02T01:33:40.345Z,2.17
2019-02-02T01:36:14.565Z,2.17
2019-02-02T01:38:48.860Z,2.08
2019-02-02T01:41:23.069Z,2.06
2019-02-02T01:43:57.314Z,1.99
2019-02-02T01:46:31.555Z,2.00
2019-02-02T01:49:05.879Z,1.96
2019-02-02T01:51:40.113Z,1.99
2019-02-02T01:54:14.365Z,1.99
2019-02-02T01:56:48.624Z,2.04
2019-02-02T01:59:22.908Z,1.94
2019-02-02T02:01:57.167Z,1.94
2019-02-02T02:04:31.458Z,1.90
2019-02-02T02:07:05.791Z,1.82
2019-02-02T02:09:40.035Z,1.83
2019-02-02T02:12:14.301Z,1.83
2019-02-02T02:14:48.583Z,1.83
2019-02-02T02:17:22.870Z,1.84
2019-02-02T02:19:57.091Z,1.83
2019-02-02T02:22:40.940Z,1.81
2019-02-02T02:25:10.143Z,1.74
2019-02-02T02:27:44.408Z,1.75
2019-02-02T02:30:20.227Z,1.76
2019-02-02T02:32:54.857Z,1.77
2019-02-02T02:35:29.078Z,1.84
2019-02-02T02:38:03.345Z,1.86
2019-02-02T02:40:37.564Z,1.86
2019-02-02T02:43:30.879Z,1.86
2019-02-02T02:46:05.101Z,1.84
2019-02-02T02:48:39.347Z,1.88
2019-02-02T02:51:13.551Z,1.90
2019-02-02T02:53:47.809Z,1.84
2019-02-02T02:56:22.003Z,1.78
2019-02-02T02:58:56.251Z,1.73
2019-02-02T03:01:30.639Z,1.73
2019-02-02T03:04:04.873Z,1.73
2019-02-02T03:06:39.103Z,1.75
2019-02-02T03:09:13.373Z,1.70
2019-02-02T03:11:47.606Z,1.78
2019-02-02T03:14:21.849Z,1.77
2019-02-02T03:16:56.077Z,1.78
2019-02-02T03:19:30.362Z,1.82
2019-02-02T03:22:04.552Z,1.82
2019-02-02T03:24:38.842Z,1.84
2019-02-02T03:27:13.053Z,1.78
2019-02-02T03:29:47.311Z,1.76
2019-02-02T03:32:21.541Z,1.82
2019-02-02T03:34:55.948Z,1.75
2019-02-02T03:37:30.160Z,1.73
2019-02-02T03:40:05.428Z,1.77
2019-02-02T03:42:39.626Z,1.78
2019-02-02T03:45:53.861Z,1.76
2019-02-02T03:48:28.068Z,1.80
2019-02-02T03:51:02.325Z,1.76
2019-02-02T03:53:36.550Z,1.80
2019-02-02T03:56:10.791Z,1.80
2019-02-02T03:58:45.011Z,1.89
2019-02-02T04:01:19.244Z,1.88
2019-02-02T04:03:53.453Z,1.91
2019-02-02T04:06:27.706Z,1.89
2019-02-02T04:09:02.000Z,1.95
2019-02-02T04:11:36.236Z,1.97
2019-02-02T04:14:10.420Z,1.97
2019-02-02T04:16:44.676Z,1.96
2019-02-02T04:19:18.892Z,1.95
2019-02-02T04:21:53.099Z,1.89
2019-02-02T04:24:27.299Z,1.93
2019-02-02T04:27:01.635Z,1.96
2019-02-02T04:29:35.951Z,1.93
2019-02-02T04:32:10.198Z,1.91
2019-02-02T04:34:44.416Z,1.98
2019-02-02T04:37:18.703Z,1.98
2019-02-02T04:39:52.932Z,1.98
2019-02-02T04:42:27.153Z,2.04
2019-02-02T04:45:01.339Z,2.09
2019-02-02T04:47:35.568Z,2.12
2019-02-02T04:50:11.815Z,2.13
2019-02-02T04:52:46.372Z,2.09
2019-02-02T04:55:20.970Z,2.03
2019-02-02T04:57:55.195Z,2.00
2019-02-02T05:00:29.428Z,2.00
2019-02-02T05:03:03.680Z,2.04
2019-02-02T05:05:37.886Z,2.08
2019-02-02T05:08:12.166Z,2.12
2019-02-02T05:10:46.371Z,2.12
2019-02-02T05:13:20.630Z,2.10
2019-02-02T05:15:54.841Z,2.08
2019-02-02T05:18:29.065Z,2.11
2019-02-02T05:21:03.278Z,2.12
2019-02-02T05:23:37.502Z,2.13
2019-02-02T05:26:11.741Z,2.12
2019-02-02T05:28:45.961Z,2.12
2019-02-02T05:31:20.205Z,2.16
2019-02-02T05:33:54.440Z,2.12
2019-02-02T05:36:28.633Z,2.08
2019-02-02T05:39:04.128Z,2.14
2019-02-02T05:41:38.373Z,2.16
2019-02-02T05:44:12.701Z,2.18
2019-02-02T05:46:46.898Z,2.17
2019-02-02T05:49:21.155Z,2.18
2019-02-02T05:51:55.351Z,2.19
2019-02-02T05:54:29.593Z,2.18
2019-02-02T05:57:03.787Z,2.25
2019-02-02T05:59:38.028Z,2.13
2019-02-02T06:02:12.318Z,2.00
2019-02-02T06:04:46.544Z,1.92
2019-02-02T06:07:20.766Z,1.95
2019-02-02T06:09:54.999Z,1.99
2019-02-02T06:12:29.579Z,2.02
2019-02-02T06:15:03.824Z,2.02
2019-02-02T06:17:38.055Z,2.01
2019-02-02T06:20:12.979Z,2.03
2019-02-02T06:22:47.230Z,1.97
2019-02-02T06:25:21.484Z,1.93
2019-02-02T06:27:55.700Z,1.96
2019-02-02T06:30:29.934Z,1.96
2019-02-02T06:33:04.139Z,1.97
2019-02-02T06:35:38.436Z,2.00
2019-02-02T06:38:12.692Z,2.07
2019-02-02T06:40:46.945Z,1.99
2019-02-02T06:43:21.147Z,1.94
2019-02-02T06:45:55.400Z,2.00
2019-02-02T06:48:29.642Z,2.02
2019-02-02T06:51:03.877Z,2.02
2019-02-02T06:53:38.138Z,2.03
2019-02-02T06:56:12.489Z,2.10
2019-02-02T06:58:46.771Z,2.13
2019-02-02T07:01:20.997Z,2.13
2019-02-02T07:03:55.242Z,2.11
2019-02-02T07:06:29.499Z,2.10
2019-02-02T07:09:04.411Z,2.07
2019-02-02T07:11:38.668Z,2.08
2019-02-02T07:14:12.926Z,2.10
2019-02-02T07:16:47.195Z,2.10
2019-02-02T07:19:21.425Z,2.09
2019-02-02T07:21:55.676Z,2.10
2019-02-02T07:24:29.917Z,2.09
2019-02-02T07:27:04.179Z,2.05
2019-02-02T07:29:38.421Z,2.04
2019-02-02T07:32:12.694Z,2.10
2019-02-02T07:34:47.053Z,2.08
2019-02-02T07:37:21.329Z,2.07
2019-02-02T07:39:55.590Z,2.12
2019-02-02T07:42:29.979Z,2.11
2019-02-02T07:45:04.374Z,2.16
2019-02-02T07:47:38.610Z,2.18
2019-02-02T07:50:14.181Z,2.21
2019-02-02T07:52:48.414Z,2.25
2019-02-02T07:55:22.798Z,2.25
2019-02-02T07:57:56.994Z,2.30
2019-02-02T08:00:41.157Z,2.32
2019-02-02T08:03:13.299Z,2.35
2019-02-02T08:05:47.581Z,2.32
2019-02-02T08:08:21.885Z,2.30
2019-02-02T08:11:01.076Z,2.37
2019-02-02T08:13:33.051Z,2.35
2019-02-02T08:16:05.039Z,2.38
2019-02-02T08:18:38.472Z,2.35
2019-02-02T08:21:10.483Z,2.40
2019-02-02T08:23:42.502Z,2.42
2019-02-02T08:26:14.611Z,2.47
2019-02-02T08:28:46.696Z,2.51
2019-02-02T08:31:18.708Z,2.58
2019-02-02T08:33:50.776Z,2.67
2019-02-02T08:36:22.802Z,2.66
2019-02-02T08:38:54.875Z,2.65
2019-02-02T08:41:26.941Z,2.73
2019-02-02T08:43:59.740Z,2.80
2019-02-02T08:46:31.753Z,2.78
2019-02-02T08:49:04.147Z,2.89
2019-02-02T08:51:36.190Z,2.95
2019-02-02T08:54:08.269Z,2.98
2019-02-02T08:56:40.343Z,2.97
2019-02-02T08:59:12.315Z,3.03
2019-02-02T09:01:44.403Z,2.99
2019-02-02T09:04:16.539Z,3.01
2019-02-02T09:06:48.526Z,3.12
2019-02-02T09:09:20.552Z,3.20
2019-02-02T09:11:52.582Z,3.26
2019-02-02T09:14:24.604Z,3.34
2019-02-02T09:16:56.628Z,3.40
2019-02-02T09:19:28.663Z,3.38
2019-02-02T09:22:00.827Z,3.51
2019-02-02T09:24:32.865Z,3.56
2019-02-02T09:27:04.935Z,3.69
2019-02-02T09:29:36.921Z,3.75
2019-02-02T09:32:08.973Z,3.81
2019-02-02T09:34:41.004Z,3.89
2019-02-02T09:37:13.123Z,3.95
2019-02-02T09:39:45.100Z,3.99
2019-02-02T09:42:17.198Z,3.97
2019-02-02T09:44:49.160Z,4.01
2019-02-02T09:47:21.183Z,4.26
2019-02-02T09:49:53.180Z,4.39
2019-02-02T09:52:25.225Z,4.62
2019-02-02T09:54:57.273Z,4.86
2019-02-02T09:57:30.264Z,4.99
2019-02-02T10:00:02.419Z,5.05
2019-02-02T10:02:34.516Z,5.17
2019-02-02T10:05:06.632Z,5.18
2019-02-02T10:07:38.676Z,5.33
2019-02-02T10:10:13.924Z,5.23
2019-02-02T10:12:46.081Z,5.34
2019-02-02T10:15:18.440Z,5.71
2019-02-02T10:17:50.564Z,5.96
2019-02-02T10:20:24.422Z,5.98
2019-02-02T10:22:57.180Z,5.95
2019-02-02T10:25:29.702Z,6.09
2019-02-02T10:28:01.810Z,6.18
2019-02-02T10:30:41.825Z,6.30
2019-02-02T10:33:15.042Z,6.37
2019-02-02T10:35:47.085Z,6.61
2019-02-02T10:38:19.116Z,6.85
2019-02-02T10:40:52.154Z,6.77
2019-02-02T10:43:24.360Z,6.70
2019-02-02T10:45:56.536Z,7.14
2019-02-02T10:48:28.532Z,7.05
2019-02-02T10:51:00.646Z,7.14
2019-02-02T10:53:32.676Z,7.12
2019-02-02T10:56:04.860Z,7.16
2019-02-02T10:58:36.909Z,7.16
2019-02-02T11:01:08.963Z,7.31
2019-02-02T11:03:41.017Z,7.49
2019-02-02T11:06:13.272Z,7.54
2019-02-02T11:08:45.289Z,7.63
2019-02-02T11:11:17.364Z,7.67
2019-02-02T11:13:49.363Z,7.71
2019-02-02T11:16:21.495Z,7.77
2019-02-02T11:18:53.651Z,7.86
2019-02-02T11:21:25.608Z,8.02
2019-02-02T11:23:57.899Z,8.02
2019-02-02T11:26:30.026Z,8.06
2019-02-02T11:29:02.224Z,8.06
2019-02-02T11:31:34.395Z,7.96
2019-02-02T11:34:06.397Z,8.06
2019-02-02T11:36:38.392Z,8.02
2019-02-02T11:39:10.483Z,8.07
2019-02-02T11:41:42.825Z,7.98
2019-02-02T11:44:14.842Z,7.96
2019-02-02T11:46:48.179Z,8.00
2019-02-02T11:49:20.157Z,8.11
2019-02-02T11:51:52.188Z,8.04
2019-02-02T11:54:24.220Z,8.11
2019-02-02T11:56:56.267Z,8.03
2019-02-02T11:59:28.286Z,8.06
2019-02-02T12:02:00.373Z,8.13
2019-02-02T12:04:32.419Z,8.15
2019-02-02T12:07:04.523Z,8.15
2019-02-02T12:09:36.595Z,8.03
2019-02-02T12:12:08.638Z,8.04
2019-02-02T12:14:40.663Z,8.11
2019-02-02T12:17:12.677Z,8.12
2019-02-02T12:19:44.799Z,8.24
2019-02-02T12:22:16.867Z,8.28
2019-02-02T12:24:48.902Z,8.42
2019-02-02T12:27:20.910Z,8.46
2019-02-02T12:29:57.877Z,8.51
2019-02-02T12:32:30.136Z,8.49
2019-02-02T12:35:04.540Z,8.53
2019-02-02T12:37:36.494Z,8.50
2019-02-02T12:40:09.405Z,8.54
2019-02-02T12:42:41.396Z,8.59
2019-02-02T12:45:16.519Z,8.49
2019-02-02T12:47:48.530Z,8.44
2019-02-02T12:50:20.561Z,8.51
2019-02-02T12:52:52.617Z,8.52
2019-02-02T12:55:26.019Z,8.45
2019-02-02T12:57:58.263Z,8.38
2019-02-02T13:00:30.270Z,8.38
2019-02-02T13:03:02.303Z,8.34
2019-02-02T13:05:34.378Z,8.37
2019-02-02T13:08:06.373Z,8.41
2019-02-02T13:10:38.437Z,8.51
2019-02-02T13:13:10.419Z,8.39
2019-02-02T13:15:42.452Z,8.38
2019-02-02T13:18:14.493Z,8.38
2019-02-02T13:20:46.524Z,8.37
2019-02-02T13:23:18.554Z,8.43
2019-02-02T13:25:50.625Z,8.35
2019-02-02T13:28:22.640Z,8.37
2019-02-02T13:30:54.676Z,8.33
2019-02-02T13:33:26.711Z,8.32
2019-02-02T13:35:58.754Z,8.33
2019-02-02T13:38:30.765Z,8.33
2019-02-02T13:41:02.811Z,8.31
2019-02-02T13:43:34.900Z,8.40
2019-02-02T13:46:06.998Z,8.43
2019-02-02T13:48:38.988Z,8.46
2019-02-02T13:51:11.015Z,8.52
2019-02-02T13:53:43.030Z,8.53
2019-02-02T13:56:15.036Z,8.55
2019-02-02T13:58:47.069Z,8.59
2019-02-02T14:01:19.151Z,8.61
2019-02-02T14:03:51.220Z,8.55
2019-02-02T14:06:23.321Z,8.55
2019-02-02T14:08:55.379Z,8.52
2019-02-02T14:11:27.394Z,8.53
2019-02-02T14:13:59.411Z,8.54
2019-02-02T14:16:31.531Z,8.54
2019-02-02T14:19:03.517Z,8.40
2019-02-02T14:21:35.590Z,8.36
2019-02-02T14:24:07.639Z,8.39
2019-02-02T14:26:39.724Z,8.41
2019-02-02T14:29:11.765Z,8.41
2019-02-02T14:31:43.811Z,8.42
2019-02-02T14:34:15.925Z,8.41
2019-02-02T14:36:47.929Z,8.39
2019-02-02T14:39:19.956Z,8.37
2019-02-02T14:41:51.961Z,8.32
2019-02-02T14:44:24.012Z,8.36
2019-02-02T14:46:56.059Z,8.32
2019-02-02T14:49:28.113Z,8.31
2019-02-02T14:52:00.167Z,8.28
2019-02-02T14:54:32.182Z,8.26
2019-02-02T14:57:04.211Z,8.24
2019-02-02T14:59:36.288Z,8.21
2019-02-02T15:02:08.361Z,8.18
2019-02-02T15:04:40.397Z,8.16
2019-02-02T15:07:12.405Z,8.12
2019-02-02T15:09:44.475Z,8.10
2019-02-02T15:12:16.651Z,8.08
2019-02-02T15:14:48.675Z,8.05
2019-02-02T15:17:20.786Z,8.06
2019-02-02T15:19:52.889Z,7.96
2019-02-02T15:22:24.993Z,7.99
2019-02-02T15:24:57.062Z,7.98
2019-02-02T15:27:29.222Z,7.96
2019-02-02T15:30:01.382Z,7.93
2019-02-02T15:32:33.535Z,8.04
2019-02-02T15:35:05.739Z,7.97
2019-02-02T15:37:37.807Z,7.94
2019-02-02T15:40:11.446Z,7.89
2019-02-02T15:42:43.484Z,7.89
2019-02-02T15:45:17.785Z,7.86
2019-02-02T15:47:49.838Z,7.83
2019-02-02T15:50:21.899Z,7.83
2019-02-02T15:52:53.915Z,7.75
2019-02-02T15:55:25.991Z,7.65
2019-02-02T15:57:58.068Z,7.62
2019-02-02T16:00:32.113Z,7.51
2019-02-02T16:03:04.524Z,7.40
2019-02-02T16:05:36.715Z,7.27
2019-02-02T16:08:13.260Z,7.18
2019-02-02T16:10:45.330Z,7.07
2019-02-02T16:13:17.352Z,6.95
2019-02-02T16:15:49.401Z,6.92
2019-02-02T16:18:21.444Z,6.77
2019-02-02T16:20:53.513Z,6.70
2019-02-02T16:23:25.522Z,6.62
2019-02-02T16:25:57.622Z,6.54
2019-02-02T16:28:29.623Z,6.48
2019-02-02T16:31:01.687Z,6.42
2019-02-02T16:33:33.768Z,6.37
2019-02-02T16:36:05.910Z,6.32
2019-02-02T16:38:37.962Z,6.26
2019-02-02T16:41:10.125Z,6.22
2019-02-02T16:43:42.174Z,6.20
2019-02-02T16:46:14.273Z,6.22
2019-02-02T16:48:46.406Z,6.17
2019-02-02T16:51:18.488Z,6.17
2019-02-02T16:53:50.579Z,6.11
2019-02-02T16:56:22.621Z,6.10
2019-02-02T16:58:54.711Z,6.06
2019-02-02T17:01:26.884Z,6.02
2019-02-02T17:03:58.941Z,5.98
2019-02-02T17:06:30.939Z,5.93
2019-02-02T17:09:06.150Z,5.85
2019-02-02T17:11:38.287Z,5.82
2019-02-02T17:14:10.337Z,5.78
2019-02-02T17:16:42.363Z,5.83
2019-02-02T17:19:14.481Z,5.74
2019-02-02T17:21:46.493Z,5.67
2019-02-02T17:24:18.518Z,5.61
2019-02-02T17:26:50.566Z,5.53
2019-02-02T17:29:22.595Z,5.50
2019-02-02T17:31:54.679Z,5.47
2019-02-02T17:34:27.617Z,5.53
2019-02-02T17:36:59.678Z,5.49
2019-02-02T17:39:31.757Z,5.46
2019-02-02T17:42:04.052Z,5.48
2019-02-02T17:44:36.193Z,5.38
2019-02-02T17:47:08.220Z,5.47
2019-02-02T17:49:40.289Z,5.46
2019-02-02T17:52:12.369Z,5.61
2019-02-02T17:54:44.429Z,5.49
2019-02-02T17:57:16.448Z,5.49
2019-02-02T17:59:48.578Z,5.46
2019-02-02T18:02:20.658Z,5.41
2019-02-02T18:04:52.707Z,5.41
2019-02-02T18:07:24.738Z,5.46
2019-02-02T18:09:56.802Z,5.48
2019-02-02T18:12:28.856Z,5.46
2019-02-02T18:15:00.916Z,5.48
2019-02-02T18:17:32.933Z,5.45
2019-02-02T18:20:06.820Z,5.48
2019-02-02T18:22:38.811Z,5.45
2019-02-02T18:25:11.787Z,5.45
2019-02-02T18:27:43.791Z,5.43
2019-02-02T18:30:17.606Z,5.46
2019-02-02T18:32:49.661Z,5.50
2019-02-02T18:35:21.685Z,5.52
2019-02-02T18:37:53.788Z,5.54
2019-02-02T18:40:25.771Z,5.60
2019-02-02T18:42:57.860Z,5.51
2019-02-02T18:45:29.852Z,5.39
2019-02-02T18:48:01.977Z,5.29
2019-02-02T18:50:33.988Z,5.32
2019-02-02T18:53:06.059Z,5.28
2019-02-02T18:55:41.030Z,5.30
2019-02-02T18:58:13.102Z,5.34
2019-02-02T19:00:45.137Z,5.34
2019-02-02T19:03:17.202Z,5.34
2019-02-02T19:05:49.244Z,5.43
2019-02-02T19:08:21.379Z,5.47
2019-02-02T19:10:53.402Z,5.43
2019-02-02T19:13:25.592Z,5.40
2019-02-02T19:15:57.630Z,5.38
2019-02-02T19:18:29.655Z,5.30
2019-02-02T19:21:01.690Z,5.26
2019-02-02T19:23:33.746Z,5.24
2019-02-02T19:26:05.806Z,5.22
2019-02-02T19:28:39.997Z,5.22
2019-02-02T19:31:12.035Z,5.26
2019-02-02T19:33:44.119Z,5.28
2019-02-02T19:36:16.260Z,5.26
2019-02-02T19:38:48.310Z,5.24
2019-02-02T19:41:20.327Z,5.21
2019-02-02T19:43:52.487Z,5.17
2019-02-02T19:46:24.499Z,5.16
2019-02-02T19:48:56.535Z,5.34
2019-02-02T19:51:28.594Z,5.17
2019-02-02T19:54:00.738Z,5.08
2019-02-02T19:56:32.792Z,5.06
2019-02-02T19:59:04.938Z,5.04
2019-02-02T20:01:36.966Z,5.02
2019-02-02T20:04:09.241Z,5.04
2019-02-02T20:06:41.274Z,5.07
2019-02-02T20:09:13.356Z,5.10
2019-02-02T20:11:45.426Z,5.08
2019-02-02T20:14:17.535Z,5.06
2019-02-02T20:16:49.733Z,5.06
2019-02-02T20:19:21.900Z,5.06
2019-02-02T20:21:54.035Z,5.08
2019-02-02T20:24:26.166Z,5.12
2019-02-02T20:26:58.237Z,5.18
2019-02-02T20:29:30.304Z,5.22
2019-02-02T20:32:02.378Z,5.18
2019-02-02T20:34:34.419Z,5.12
2019-02-02T20:37:06.537Z,5.14
2019-02-02T20:39:38.622Z,5.11
2019-02-02T20:42:10.710Z,5.10
2019-02-02T20:44:42.739Z,5.09
2019-02-02T20:47:14.866Z,5.08
2019-02-02T20:49:46.907Z,5.06
2019-02-02T20:52:18.994Z,5.01
2019-02-02T20:54:51.076Z,4.97
2019-02-02T20:57:23.150Z,4.91
2019-02-02T20:59:55.185Z,4.91
2019-02-02T21:02:27.404Z,4.90
2019-02-02T21:04:59.459Z,4.92
2019-02-02T21:07:31.538Z,4.93
2019-02-02T21:10:25.526Z,4.92
2019-02-02T21:12:57.788Z,4.95
2019-02-02T21:15:34.555Z,4.89
2019-02-02T21:18:06.780Z,4.88
2019-02-02T21:20:39.477Z,4.85
2019-02-02T21:23:11.559Z,4.86
2019-02-02T21:25:43.603Z,4.82
2019-02-02T21:28:15.667Z,4.77
2019-02-02T21:30:47.759Z,4.79
2019-02-02T21:33:19.917Z,4.82
2019-02-02T21:36:03.208Z,4.79
2019-02-02T21:38:26.108Z,4.79
2019-02-02T21:40:58.082Z,4.77
2019-02-02T21:43:30.206Z,4.76
2019-02-02T21:46:02.234Z,4.76
2019-02-02T21:48:36.233Z,4.74
2019-02-02T21:51:08.260Z,4.76
2019-02-02T21:53:42.225Z,4.77
2019-02-02T21:56:14.271Z,4.78
2019-02-02T21:58:46.278Z,4.81
2019-02-02T22:01:24.110Z,4.84
2019-02-02T22:03:52.280Z,4.87
2019-02-02T22:06:24.266Z,4.83
2019-02-02T22:08:56.289Z,4.86
2019-02-02T22:11:28.324Z,4.81
2019-02-02T22:14:00.370Z,4.79
2019-02-02T22:16:32.407Z,4.78
2019-02-02T22:19:04.787Z,4.74
2019-02-02T22:21:36.805Z,4.72
2019-02-02T22:24:08.863Z,4.75
2019-02-02T22:26:41.106Z,4.73
2019-02-02T22:29:13.160Z,4.73
2019-02-02T22:31:45.203Z,4.69
2019-02-02T22:34:17.223Z,4.70
2019-02-02T22:37:04.011Z,4.58
2019-02-02T22:39:36.090Z,4.58
2019-02-02T22:42:08.168Z,4.54
2019-02-02T22:44:40.191Z,4.56
2019-02-02T22:47:12.224Z,4.55
2019-02-02T22:49:44.271Z,4.54
2019-02-02T22:52:16.329Z,4.55
2019-02-02T22:54:48.399Z,4.60
2019-02-02T22:57:20.725Z,4.62
2019-02-02T22:59:53.075Z,4.65
2019-02-02T23:02:25.157Z,4.70
2019-02-02T23:05:19.478Z,4.67
2019-02-02T23:08:36.037Z,4.63
2019-02-02T23:12:04.965Z,4.68
2019-02-02T23:15:08.850Z,4.68
2019-02-02T23:17:40.918Z,4.65
2019-02-02T23:20:12.952Z,4.64
2019-02-02T23:22:45.041Z,4.66
2019-02-02T23:25:17.058Z,4.63
2019-02-02T23:27:49.064Z,4.60
2019-02-02T23:30:21.233Z,4.66
2019-02-02T23:32:53.352Z,4.61
2019-02-02T23:35:25.377Z,4.62
2019-02-02T23:37:57.386Z,4.63
2019-02-02T23:40:29.423Z,4.60
2019-02-02T23:43:01.451Z,4.58
2019-02-02T23:45:33.467Z,4.57
2019-02-02T23:48:05.519Z,4.54
2019-02-02T23:50:37.558Z,4.54
2019-02-02T23:53:09.593Z,4.57
2019-02-02T23:55:41.628Z,4.59
2019-02-02T23:58:13.699Z,4.64
